Moffit, ND (58560)

5:26 PM CDT on July 26, 2016 (GMT -0500)
Apple Meadows | | Change Station

Elev 1732 ft 46.81 °N, 100.67 °W | Updated 10 minutes ago

Partly Cloudy
Partly Cloudy
82.2 °F
Feels Like 84 °F
N
5.8
Wind Variable Wind from NNE

Today
High -- | Low -- °F
--% Chance of Precip.
Yesterday
High -- | Low -- °F
Precip. -- in
Pressure 29.98 in
Visibility 10.0 miles
Clouds Few 4400 ft
Heat Index 84 °F
Dew Point 64 °F
Humidity 55%
Rainfall 0.00 in
Snow Depth Not available.
6:14 AM 9:19 PM
Waning Gibbous, 50% visible
METAR KBIS 262152Z 04013KT 10SM FEW044 28/18 A3001 RMK AO2 SLP152 T02780183
Pressure 29.98 in
Visibility 10.0 miles
Clouds Few 4400 ft
Heat Index 84 °F
Dew Point 64 °F
Humidity 55%
Rainfall 0.00 in
Snow Depth Not available.
6:14 AM 9:19 PM
Waning Gibbous, 50% visible
METAR KBIS 262152Z 04013KT 10SM FEW044 28/18 A3001 RMK AO2 SLP152 T02780183

10-Day Weather Forecast

Almanac

Astronomy

Jul. 26, 2016 Rise Set
Actual Time
Civil Twilight
Nautical Twilight
Astronomical Twilight
Moon
Length of Visible Light
Length of Day
Tomorrow will be .
, % of the Moon is Illuminated

Today's Extremes

State Highs State Lows

Community

WunderPhotos

Upload Photos

1,927,717 photos uploaded!

WunderBlog® & News

Nearby

Air Quality

  Air Quality AQ Index Pollutant
Not available.

Snow Depth

Station Depth Elevation

Earthquake Activity

City Distance Mag. Time & Date
Minimum magnitude displayed is 2.5.

Coastal Water Temperatures

Place Temperature

Stations

Nearby Weather Stations

Station Location Temp. Windchill Dew Point Humidity Wind Precip. Elev Updated Type
                   

Watches & Warnings

There are currently no watches in effect.